Time;durP1;ratioP1;P1;durP2;ratioP2;P2;SDS_P1;SDS_P2;PMS_P1;PMS_P2;Temp;Humidity;BMP_temperature;BMP_pressure;BME280_temperature;BME280_humidity;BME280_pressure;Samples;Min_cycle;Max_cycle;Signal;HPM_P1;HPM_P2
2023/09/14 00:01:42;;;;;;;6.30;2.93;;;25.20;58.80;;;;;;4973928;28;20199;-67
2023/09/14 00:04:08;;;;;;;3.03;2.80;;;25.20;58.80;;;;;;4975026;28;20496;-67
2023/09/14 00:06:33;;;;;;;3.87;2.80;;;25.20;58.70;;;;;;4974751;28;20180;-67
2023/09/14 00:08:59;;;;;;;2.93;2.67;;;25.20;58.80;;;;;;4974618;28;20201;-67
2023/09/14 00:11:25;;;;;;;2.70;2.40;;;25.20;58.70;;;;;;4958378;28;20201;-67
2023/09/14 00:13:50;;;;;;;2.67;2.47;;;25.20;58.70;;;;;;4958089;28;20217;-67
2023/09/14 00:16:16;;;;;;;3.50;2.73;;;25.20;58.70;;;;;;4958467;28;20216;-67
2023/09/14 00:18:41;;;;;;;2.97;2.67;;;25.20;58.70;;;;;;4974810;28;20531;-67
2023/09/14 00:21:07;;;;;;;2.93;2.63;;;25.20;58.60;;;;;;4975673;28;20182;-67
2023/09/14 00:23:33;;;;;;;4.17;2.90;;;25.20;58.60;;;;;;4975660;28;20197;-67
2023/09/14 00:25:58;;;;;;;3.60;2.67;;;25.20;58.60;;;;;;4975883;28;20683;-67
2023/09/14 00:28:24;;;;;;;2.57;2.37;;;25.20;58.50;;;;;;4975494;28;20181;-67
2023/09/14 00:30:53;;;;;;;3.00;2.70;;;25.20;58.60;;;;;;4974478;28;20223;-67
2023/09/14 00:33:20;;;;;;;3.40;2.67;;;25.20;58.70;;;;;;4974037;28;20228;-67
2023/09/14 00:35:46;;;;;;;2.87;2.57;;;25.20;58.60;;;;;;4974212;28;20911;-67
2023/09/14 00:38:12;;;;;;;2.43;2.20;;;25.20;58.60;;;;;;4975420;28;20419;-66
2023/09/14 00:40:38;;;;;;;2.50;2.30;;;25.20;58.70;;;;;;4975434;28;20416;-67
2023/09/14 00:43:04;;;;;;;3.13;2.43;;;25.20;58.70;;;;;;4973902;28;20292;-68
2023/09/14 00:45:31;;;;;;;3.07;2.57;;;25.20;58.70;;;;;;4973969;28;20205;-67
2023/09/14 00:47:58;;;;;;;2.73;2.43;;;25.20;58.50;;;;;;4975177;28;20671;-67
2023/09/14 00:50:25;;;;;;;5.40;3.07;;;25.20;58.50;;;;;;4973825;28;20680;-67
2023/09/14 00:52:57;;;;;;;2.37;1.93;;;25.10;58.30;;;;;;4975097;28;20943;-67
2023/09/14 00:55:24;;;;;;;2.50;2.27;;;25.20;58.20;;;;;;4974055;28;20515;-67
2023/09/14 00:57:51;;;;;;;2.63;2.43;;;25.10;58.30;;;;;;4974780;28;20425;-67
2023/09/14 01:00:17;;;;;;;3.07;2.37;;;25.20;58.30;;;;;;4973733;28;20412;-67
2023/09/14 01:02:44;;;;;;;2.40;2.20;;;25.20;58.30;;;;;;4973614;28;20441;-67
2023/09/14 01:05:11;;;;;;;2.50;2.13;;;25.10;58.30;;;;;;4973652;28;20428;-67
2023/09/14 01:07:36;;;;;;;3.10;2.50;;;25.20;58.40;;;;;;4974877;28;20420;-66
2023/09/14 01:10:04;;;;;;;2.80;2.50;;;25.10;58.50;;;;;;4974836;28;20421;-67
2023/09/14 01:12:31;;;;;;;2.80;2.10;;;25.20;58.70;;;;;;4974119;28;20264;-67
2023/09/14 01:15:16;;;;;;;2.40;2.20;;;25.20;58.70;;;;;;4972833;28;20519;-67
2023/09/14 01:18:18;;;;;;;2.67;2.30;;;25.20;58.70;;;;;;4974792;28;20398;-67
2023/09/14 01:21:29;;;;;;;2.77;2.57;;;25.20;59.20;;;;;;4973306;28;20400;-66
2023/09/14 01:24:04;;;;;;;2.60;1.87;;;25.20;58.60;;;;;;4973171;28;20457;-67
2023/09/14 01:26:32;;;;;;;2.40;2.10;;;25.20;58.50;;;;;;4973208;28;20417;-66
2023/09/14 01:28:59;;;;;;;5.27;2.93;;;25.20;58.60;;;;;;4974408;28;20417;-66
2023/09/14 01:31:25;;;;;;;2.40;2.13;;;25.20;58.50;;;;;;4973665;28;20453;-67
2023/09/14 01:33:51;;;;;;;2.40;1.93;;;25.20;58.40;;;;;;4974355;28;20559;-67
2023/09/14 01:36:25;;;;;;;1.67;1.57;;;25.20;58.50;;;;;;4974418;28;20914;-67
2023/09/14 01:38:53;;;;;;;2.20;2.00;;;25.20;58.50;;;;;;4974334;28;20166;-66
2023/09/14 01:41:19;;;;;;;3.93;2.07;;;25.20;59.00;;;;;;4955850;28;20433;-67
2023/09/14 01:43:47;;;;;;;2.27;2.00;;;25.20;58.30;;;;;;4972972;28;20766;-67
2023/09/14 01:46:14;;;;;;;2.43;2.20;;;25.10;58.30;;;;;;4973792;28;20401;-67
2023/09/14 01:48:39;;;;;;;2.23;2.03;;;25.20;58.20;;;;;;4972624;28;20798;-67
2023/09/14 01:51:05;;;;;;;2.63;2.37;;;25.10;58.10;;;;;;4972663;28;20445;-67
2023/09/14 01:53:31;;;;;;;1.80;1.60;;;25.10;58.20;;;;;;4973927;28;20197;-67
2023/09/14 01:55:56;;;;;;;1.80;1.70;;;25.10;58.20;;;;;;4974056;28;20201;-67
2023/09/14 01:58:22;;;;;;;2.43;2.07;;;25.10;58.20;;;;;;4973896;28;20177;-68
2023/09/14 02:00:47;;;;;;;3.50;1.97;;;25.10;58.30;;;;;;4973844;28;20201;-67
2023/09/14 02:03:13;;;;;;;2.60;2.40;;;25.10;58.30;;;;;;4972190;28;20170;-67
2023/09/14 02:05:40;;;;;;;2.27;1.83;;;25.10;58.30;;;;;;4971826;28;20184;-67
2023/09/14 02:08:06;;;;;;;2.50;2.03;;;25.10;58.40;;;;;;4973914;28;20204;-67
2023/09/14 02:10:31;;;;;;;2.27;2.00;;;25.10;58.40;;;;;;4973299;28;20508;-68
2023/09/14 02:12:57;;;;;;;2.43;1.77;;;25.10;58.30;;;;;;4973431;28;20532;-66
2023/09/14 02:15:23;;;;;;;3.47;2.00;;;25.10;58.30;;;;;;4972240;28;20610;-67
2023/09/14 02:17:48;;;;;;;2.20;1.97;;;25.10;58.30;;;;;;4956119;28;20200;-67
2023/09/14 02:20:14;;;;;;;2.43;1.60;;;25.10;58.40;;;;;;4972238;28;20181;-67
2023/09/14 02:22:40;;;;;;;1.50;1.40;;;25.10;58.30;;;;;;4973422;28;20190;-67
2023/09/14 02:25:06;;;;;;;1.60;1.47;;;25.10;58.40;;;;;;4970774;28;20437;-67
2023/09/14 02:27:32;;;;;;;1.97;1.77;;;25.10;59.00;;;;;;4972103;28;20215;-67
2023/09/14 02:29:58;;;;;;;3.20;1.73;;;25.10;58.50;;;;;;4972013;28;20405;-67
2023/09/14 02:32:23;;;;;;;2.00;1.80;;;25.10;58.50;;;;;;4971943;28;21022;-67
2023/09/14 02:34:49;;;;;;;2.10;1.90;;;25.10;58.50;;;;;;4973386;28;20719;-67
2023/09/14 02:37:15;;;;;;;1.83;1.40;;;25.10;58.50;;;;;;4955904;28;20174;-66
2023/09/14 02:39:41;;;;;;;2.30;1.73;;;25.10;58.50;;;;;;4971813;28;20236;-67
2023/09/14 02:42:06;;;;;;;2.00;1.80;;;25.10;58.50;;;;;;4955724;28;20552;-67
2023/09/14 02:44:32;;;;;;;2.47;1.60;;;25.10;58.50;;;;;;4973186;28;20165;-67
2023/09/14 02:46:58;;;;;;;2.17;1.93;;;25.10;58.50;;;;;;4973329;28;20708;-67
2023/09/14 02:49:23;;;;;;;1.77;1.67;;;25.20;58.60;;;;;;4971839;28;20181;-67
2023/09/14 02:51:51;;;;;;;4.87;1.50;;;25.10;58.60;;;;;;4972839;28;20229;-68
2023/09/14 02:54:17;;;;;;;1.83;1.67;;;25.10;58.60;;;;;;4971569;28;20228;-67
2023/09/14 02:56:43;;;;;;;1.87;1.63;;;25.10;58.60;;;;;;4971534;28;20429;-67
2023/09/14 02:59:08;;;;;;;1.83;1.70;;;25.10;58.60;;;;;;4972916;28;20421;-66
2023/09/14 03:01:34;;;;;;;1.80;1.70;;;25.20;58.60;;;;;;4972851;28;20197;-67
2023/09/14 03:04:00;;;;;;;2.17;1.70;;;25.20;58.60;;;;;;4971482;28;20206;-67
2023/09/14 03:06:26;;;;;;;2.17;1.77;;;25.20;58.50;;;;;;4971587;28;20978;-67
2023/09/14 03:08:52;;;;;;;2.60;1.50;;;25.20;58.50;;;;;;4972916;28;20178;-67
2023/09/14 03:11:17;;;;;;;1.60;1.50;;;25.20;58.40;;;;;;4971490;28;20205;-67
2023/09/14 03:13:43;;;;;;;2.33;1.50;;;25.20;58.50;;;;;;4971940;28;20339;-67
2023/09/14 03:16:09;;;;;;;2.73;1.93;;;25.20;58.50;;;;;;4972574;28;20220;-67
2023/09/14 03:18:34;;;;;;;1.80;1.70;;;25.20;58.40;;;;;;4971512;28;20188;-67
2023/09/14 03:21:00;;;;;;;1.50;1.30;;;25.20;58.90;;;;;;4972506;28;20260;-67
2023/09/14 03:23:25;;;;;;;1.50;1.37;;;25.10;58.30;;;;;;4955053;28;20174;-68
2023/09/14 03:25:51;;;;;;;1.50;1.37;;;25.10;58.30;;;;;;4971113;28;20557;-67
2023/09/14 03:28:17;;;;;;;2.43;1.83;;;25.10;58.30;;;;;;4972460;28;20185;-67
2023/09/14 03:30:44;;;;;;;1.80;1.50;;;25.20;58.40;;;;;;4972285;28;20264;-67
2023/09/14 03:33:10;;;;;;;1.90;1.77;;;25.10;58.40;;;;;;4971036;28;20424;-67
2023/09/14 03:35:36;;;;;;;1.73;1.50;;;25.10;58.40;;;;;;4972150;28;20428;-67
2023/09/14 03:38:02;;;;;;;1.70;1.60;;;25.10;58.40;;;;;;4972331;28;20397;-67
2023/09/14 03:40:28;;;;;;;1.50;1.40;;;25.10;58.40;;;;;;4971011;28;20756;-67
2023/09/14 03:42:54;;;;;;;2.80;1.73;;;25.10;58.40;;;;;;4972297;28;20529;-67
2023/09/14 03:45:19;;;;;;;1.83;1.50;;;25.10;58.30;;;;;;4970813;28;20405;-67
2023/09/14 03:47:46;;;;;;;2.10;1.90;;;25.10;58.40;;;;;;4971942;28;20217;-67
2023/09/14 03:50:11;;;;;;;2.37;1.47;;;25.10;58.60;;;;;;4970855;28;20598;-67
2023/09/14 03:52:37;;;;;;;1.80;1.50;;;25.10;58.50;;;;;;4970789;28;20432;-67
2023/09/14 03:55:04;;;;;;;1.60;1.50;;;25.10;58.50;;;;;;4972021;28;20272;-66
2023/09/14 03:57:30;;;;;;;1.60;1.50;;;25.10;58.50;;;;;;4972115;28;20170;-67
2023/09/14 03:59:56;;;;;;;1.40;1.23;;;25.10;58.50;;;;;;4970655;28;20409;-67
2023/09/14 04:02:23;;;;;;;1.80;1.53;;;25.10;58.50;;;;;;4970702;28;20955;-67
2023/09/14 04:04:49;;;;;;;1.50;1.40;;;25.10;59.10;;;;;;4970415;28;20424;-67
2023/09/14 04:07:15;;;;;;;2.27;1.70;;;25.10;58.50;;;;;;4954579;28;20440;-67
2023/09/14 04:09:41;;;;;;;1.77;1.60;;;25.10;58.50;;;;;;4971706;28;20174;-67
2023/09/14 04:12:08;;;;;;;1.53;1.40;;;25.10;58.60;;;;;;4971660;28;20644;-68
2023/09/14 04:14:34;;;;;;;2.93;1.70;;;25.10;58.50;;;;;;4971143;28;20453;-67
2023/09/14 04:17:00;;;;;;;1.50;1.40;;;25.10;58.50;;;;;;4938609;28;20943;-67
2023/09/14 04:19:28;;;;;;;2.13;1.40;;;25.10;58.50;;;;;;4970547;28;20528;-67
2023/09/14 04:21:53;;;;;;;2.13;1.30;;;25.20;58.60;;;;;;4970321;28;20437;-67
2023/09/14 04:24:20;;;;;;;1.50;1.40;;;25.20;58.60;;;;;;4970585;28;20420;-67
2023/09/14 04:26:46;;;;;;;1.63;1.30;;;25.20;58.50;;;;;;4972131;28;20182;-67
2023/09/14 04:29:12;;;;;;;2.10;1.57;;;25.20;58.50;;;;;;4970374;28;20479;-67
2023/09/14 04:31:38;;;;;;;1.60;1.37;;;25.20;58.50;;;;;;4971736;28;20437;-68
2023/09/14 04:34:06;;;;;;;2.13;1.50;;;25.20;58.40;;;;;;4971671;28;20468;-67
2023/09/14 04:36:32;;;;;;;1.30;1.20;;;25.20;58.20;;;;;;4954479;28;20178;-67
2023/09/14 04:39:00;;;;;;;1.53;1.27;;;25.10;58.20;;;;;;4971944;28;20415;-67
2023/09/14 04:41:25;;;;;;;1.20;1.10;;;25.10;58.10;;;;;;4970432;28;20196;-65
2023/09/14 04:43:51;;;;;;;2.10;1.50;;;25.10;58.10;;;;;;4971700;28;20908;-67
2023/09/14 04:46:16;;;;;;;2.20;1.60;;;25.10;58.10;;;;;;4970062;28;20197;-67
2023/09/14 04:48:42;;;;;;;2.03;1.50;;;25.10;58.10;;;;;;4974935;28;20201;-67
2023/09/14 04:51:08;;;;;;;1.33;1.20;;;25.10;57.90;;;;;;4973790;28;20204;-67
2023/09/14 04:53:34;;;;;;;1.40;1.30;;;25.10;57.80;;;;;;4974884;28;20487;-67
2023/09/14 04:55:59;;;;;;;1.63;1.33;;;25.10;57.90;;;;;;4957133;28;20727;-66
2023/09/14 04:58:25;;;;;;;1.77;1.50;;;25.10;57.90;;;;;;4973702;28;20245;-66
2023/09/14 05:00:51;;;;;;;1.67;1.20;;;25.10;57.80;;;;;;4973993;28;20178;-66
2023/09/14 05:03:18;;;;;;;1.40;1.27;;;25.10;57.90;;;;;;4973255;28;20220;-66
2023/09/14 05:05:50;;;;;;;1.70;1.50;;;25.10;57.90;;;;;;4975023;28;20424;-67
2023/09/14 05:08:16;;;;;;;1.93;1.53;;;25.10;57.90;;;;;;4974255;28;20916;-66
2023/09/14 05:10:42;;;;;;;1.73;1.40;;;25.10;57.90;;;;;;4957388;28;20564;-66
2023/09/14 05:13:07;;;;;;;1.87;1.60;;;25.10;58.00;;;;;;4973346;28;20217;-67
2023/09/14 05:15:33;;;;;;;1.93;1.30;;;25.10;58.10;;;;;;4974950;28;20201;-66
2023/09/14 05:17:59;;;;;;;2.37;1.53;;;25.10;58.10;;;;;;4973393;28;20220;-66
2023/09/14 05:20:25;;;;;;;1.60;1.27;;;25.10;57.90;;;;;;4974581;28;20720;-66
2023/09/14 05:22:50;;;;;;;1.70;1.60;;;25.10;57.80;;;;;;4973110;28;20617;-66
2023/09/14 05:25:16;;;;;;;2.57;1.77;;;25.10;57.80;;;;;;4974686;28;20189;-67
2023/09/14 05:27:42;;;;;;;3.70;1.47;;;25.10;57.80;;;;;;4974461;28;20240;-66
2023/09/14 05:30:09;;;;;;;1.83;1.33;;;25.10;57.90;;;;;;4974276;28;20180;-66
2023/09/14 05:32:36;;;;;;;2.13;1.47;;;25.10;57.80;;;;;;4974874;28;20224;-67
2023/09/14 05:35:02;;;;;;;1.47;1.20;;;25.10;57.60;;;;;;4972835;28;20460;-66
2023/09/14 05:37:28;;;;;;;1.60;1.43;;;25.10;57.70;;;;;;4957217;28;20947;-66
2023/09/14 05:39:54;;;;;;;2.63;1.40;;;25.00;57.70;;;;;;4974249;28;20448;-67
2023/09/14 05:42:22;;;;;;;1.83;1.13;;;25.00;57.70;;;;;;4974071;28;20188;-67
2023/09/14 05:44:48;;;;;;;1.60;1.30;;;25.00;57.60;;;;;;4972763;28;20417;-67
2023/09/14 05:47:14;;;;;;;2.00;1.13;;;25.10;57.60;;;;;;4956666;28;20862;-66
2023/09/14 05:49:40;;;;;;;2.23;1.50;;;25.00;58.10;;;;;;4974231;28;20479;-67
2023/09/14 05:52:06;;;;;;;1.90;1.57;;;25.00;57.60;;;;;;4972701;28;20447;-66
2023/09/14 05:54:31;;;;;;;2.27;1.50;;;25.00;57.70;;;;;;4973836;28;21021;-68
2023/09/14 05:56:57;;;;;;;1.87;1.30;;;25.00;57.60;;;;;;4973868;28;20174;-66
2023/09/14 05:59:23;;;;;;;2.60;1.80;;;25.00;57.60;;;;;;4972547;28;20181;-67
2023/09/14 06:01:50;;;;;;;1.90;1.50;;;25.00;57.60;;;;;;4973694;28;20201;-66
2023/09/14 06:04:16;;;;;;;3.10;1.50;;;25.00;57.50;;;;;;4972831;28;20201;-67
2023/09/14 06:06:42;;;;;;;1.50;1.20;;;25.00;57.50;;;;;;4973705;28;20421;-67
2023/09/14 06:09:08;;;;;;;2.40;1.50;;;25.00;57.40;;;;;;4956333;28;20405;-67
2023/09/14 06:11:33;;;;;;;3.07;1.27;;;24.90;57.30;;;;;;4973654;28;20209;-67
2023/09/14 06:13:59;;;;;;;1.67;1.33;;;24.90;57.40;;;;;;4940134;28;20209;-66
2023/09/14 06:16:25;;;;;;;1.60;1.37;;;24.90;57.30;;;;;;4973575;28;20174;-66
2023/09/14 06:18:50;;;;;;;3.30;1.37;;;24.90;57.40;;;;;;4972172;28;20669;-67
2023/09/14 06:21:16;;;;;;;1.67;1.30;;;24.90;57.50;;;;;;4973435;28;20189;-67
2023/09/14 06:23:41;;;;;;;1.97;1.67;;;24.90;57.50;;;;;;4972171;28;20177;-66
2023/09/14 06:26:07;;;;;;;1.93;1.47;;;24.90;57.50;;;;;;4973684;28;20320;-66
2023/09/14 06:28:33;;;;;;;1.33;1.20;;;24.90;57.50;;;;;;4973464;28;20264;-67
2023/09/14 06:30:59;;;;;;;1.70;1.37;;;24.90;57.50;;;;;;4973279;28;20173;-67
2023/09/14 06:33:24;;;;;;;1.60;1.40;;;24.90;57.40;;;;;;4972036;28;20186;-66
2023/09/14 06:35:50;;;;;;;2.00;1.30;;;24.90;57.50;;;;;;4971816;28;20514;-67
2023/09/14 06:38:16;;;;;;;1.50;1.40;;;24.90;57.50;;;;;;4972881;28;20672;-66
2023/09/14 06:40:41;;;;;;;1.80;1.50;;;24.90;57.50;;;;;;4973313;28;20194;-67
2023/09/14 06:43:07;;;;;;;2.83;1.43;;;24.90;57.50;;;;;;4972997;28;20264;-66
2023/09/14 06:45:33;;;;;;;1.60;1.50;;;24.90;57.50;;;;;;4971893;28;20193;-66
2023/09/14 06:48:00;;;;;;;1.90;1.37;;;24.90;57.30;;;;;;4972231;28;20428;-66
2023/09/14 06:50:25;;;;;;;2.67;1.80;;;24.90;57.40;;;;;;4973102;28;20182;-67
2023/09/14 06:52:51;;;;;;;1.80;1.40;;;24.90;57.40;;;;;;4973147;28;20445;-67
2023/09/14 06:55:19;;;;;;;1.80;1.40;;;24.90;58.10;;;;;;4955545;28;20845;-67
2023/09/14 06:57:45;;;;;;;2.17;1.97;;;24.90;57.40;;;;;;4971544;28;20433;-67
2023/09/14 07:00:15;;;;;;;3.20;1.40;;;24.90;57.40;;;;;;4971074;28;20420;-67
2023/09/14 07:02:41;;;;;;;2.07;1.60;;;24.90;57.20;;;;;;4971397;28;20276;-66
2023/09/14 07:05:09;;;;;;;2.50;2.30;;;24.90;57.00;;;;;;4972624;28;20507;-66
2023/09/14 07:07:35;;;;;;;2.10;1.80;;;24.90;57.00;;;;;;4972592;28;20240;-67
2023/09/14 07:10:01;;;;;;;2.87;1.90;;;24.90;57.10;;;;;;4970901;28;20433;-66
2023/09/14 07:12:26;;;;;;;2.93;1.80;;;24.90;57.00;;;;;;4972513;28;20213;-66
2023/09/14 07:14:53;;;;;;;3.03;1.87;;;24.90;57.00;;;;;;4987434;28;20471;-67
2023/09/14 07:17:18;;;;;;;3.80;1.80;;;24.90;57.00;;;;;;4971199;28;20185;-66
2023/09/14 07:19:44;;;;;;;2.27;1.97;;;24.90;57.10;;;;;;5003610;28;20409;-65
2023/09/14 07:22:10;;;;;;;3.20;1.90;;;24.90;57.10;;;;;;4972351;28;20664;-67
2023/09/14 07:24:35;;;;;;;3.63;1.87;;;24.80;57.10;;;;;;4971420;28;20209;-67
2023/09/14 07:27:01;;;;;;;5.37;2.27;;;24.80;57.10;;;;;;4971489;28;20233;-66
2023/09/14 07:29:28;;;;;;;3.23;2.13;;;24.80;56.90;;;;;;4955075;28;20181;-67
2023/09/14 07:31:54;;;;;;;3.70;1.70;;;24.70;56.80;;;;;;4955200;28;20202;-66
2023/09/14 07:34:20;;;;;;;2.93;1.70;;;24.70;56.80;;;;;;4972200;28;20519;-66
2023/09/14 07:36:46;;;;;;;2.97;2.00;;;24.70;56.70;;;;;;4970717;28;20424;-66
2023/09/14 07:39:12;;;;;;;2.23;1.70;;;24.70;56.90;;;;;;4970154;28;20624;-66
2023/09/14 07:41:37;;;;;;;2.00;1.33;;;24.80;57.00;;;;;;4951370;28;20803;-67
2023/09/14 07:44:03;;;;;;;2.20;1.83;;;24.70;57.00;;;;;;4969358;28;20435;-65
2023/09/14 07:46:29;;;;;;;1.90;1.63;;;24.70;57.10;;;;;;4969503;28;20209;-67
2023/09/14 07:48:55;;;;;;;3.43;2.10;;;24.80;57.60;;;;;;4970056;28;20421;-66
2023/09/14 07:51:20;;;;;;;5.00;1.83;;;24.80;56.90;;;;;;4953977;28;20197;-66
2023/09/14 07:53:46;;;;;;;3.03;1.80;;;24.80;57.00;;;;;;4970750;28;20205;-67
2023/09/14 07:56:12;;;;;;;2.13;1.57;;;24.80;57.00;;;;;;4972390;28;20192;-67
2023/09/14 07:58:37;;;;;;;2.10;1.70;;;24.80;57.00;;;;;;4954962;28;20650;-66
2023/09/14 08:01:03;;;;;;;2.33;1.60;;;24.80;57.10;;;;;;4971931;28;20290;-66
2023/09/14 08:03:29;;;;;;;2.03;1.53;;;24.80;57.00;;;;;;4970832;28;20213;-66
2023/09/14 08:05:54;;;;;;;2.87;2.00;;;24.80;57.00;;;;;;4970663;28;20281;-66
2023/09/14 08:08:20;;;;;;;2.33;1.87;;;24.80;57.40;;;;;;4970972;28;20884;-67
2023/09/14 08:10:50;;;;;;;1.70;1.50;;;24.80;57.00;;;;;;4970610;28;20260;-66
2023/09/14 08:13:16;;;;;;;2.00;1.53;;;24.80;57.00;;;;;;4971834;28;20198;-67
2023/09/14 08:15:41;;;;;;;2.50;1.80;;;24.80;56.90;;;;;;4971852;28;20543;-66
2023/09/14 08:18:07;;;;;;;2.17;1.87;;;24.80;57.00;;;;;;4970530;28;20178;-66
2023/09/14 08:20:38;;;;;;;1.93;1.43;;;24.80;57.00;;;;;;4971690;28;20533;-67
2023/09/14 08:23:03;;;;;;;2.17;1.70;;;24.80;57.00;;;;;;4974603;28;20881;-67
2023/09/14 08:25:29;;;;;;;2.40;2.07;;;24.80;56.90;;;;;;4941192;28;20424;-67
2023/09/14 08:27:56;;;;;;;2.20;1.73;;;24.80;56.90;;;;;;4974719;28;20189;-67
2023/09/14 08:30:22;;;;;;;3.30;2.00;;;24.80;56.90;;;;;;4958332;28;20185;-66
2023/09/14 08:32:48;;;;;;;1.90;1.57;;;24.80;56.90;;;;;;4974291;28;21053;-66
2023/09/14 08:35:24;;;;;;;2.30;1.80;;;24.80;56.80;;;;;;4974049;28;20456;-66
2023/09/14 08:37:53;;;;;;;2.63;1.90;;;24.90;57.00;;;;;;4975697;28;20427;-66
2023/09/14 08:40:19;;;;;;;3.03;1.63;;;24.90;57.00;;;;;;4958156;28;20425;-67
2023/09/14 08:42:51;;;;;;;1.93;1.60;;;24.80;56.70;;;;;;4975598;28;20496;-66
2023/09/14 08:45:24;;;;;;;2.33;1.50;;;24.80;56.80;;;;;;4975592;28;20184;-66
2023/09/14 08:47:50;;;;;;;2.23;1.50;;;24.80;56.80;;;;;;4975110;28;20479;-66
2023/09/14 08:50:20;;;;;;;2.50;1.70;;;24.80;56.50;;;;;;4974411;28;20974;-67
2023/09/14 08:52:46;;;;;;;1.70;1.60;;;24.80;56.50;;;;;;4975011;28;20437;-67
2023/09/14 08:55:13;;;;;;;2.93;2.00;;;24.80;56.60;;;;;;4975078;28;20725;-66
2023/09/14 08:57:41;;;;;;;1.87;1.70;;;24.80;56.40;;;;;;4975128;28;20173;-64
2023/09/14 09:00:14;;;;;;;1.73;1.63;;;24.80;56.30;;;;;;4975116;28;20915;-66
2023/09/14 09:02:51;;;;;;;1.93;1.70;;;24.80;56.30;;;;;;4973689;28;20536;-66
2023/09/14 09:05:18;;;;;;;2.13;1.60;;;24.70;56.10;;;;;;4975316;28;20452;-67
2023/09/14 09:07:45;;;;;;;2.67;2.00;;;24.80;56.30;;;;;;4975118;28;20413;-66
2023/09/14 09:10:31;;;;;;;1.90;1.70;;;24.80;56.40;;;;;;4972728;28;20968;-66
2023/09/14 09:12:58;;;;;;;2.23;2.03;;;24.80;56.10;;;;;;4972540;28;20559;-66
2023/09/14 09:15:25;;;;;;;2.00;1.80;;;24.80;55.90;;;;;;4974175;28;20456;-66
2023/09/14 09:17:55;;;;;;;2.50;2.10;;;24.70;55.90;;;;;;4974491;28;20825;-65
2023/09/14 09:20:22;;;;;;;2.33;1.90;;;24.80;56.00;;;;;;4974283;28;20764;-67
2023/09/14 09:22:54;;;;;;;2.03;1.70;;;24.70;55.90;;;;;;4970635;28;20552;-65
2023/09/14 09:25:22;;;;;;;4.27;1.77;;;24.70;56.00;;;;;;4974242;28;20417;-67
2023/09/14 09:27:57;;;;;;;1.77;1.67;;;24.70;55.90;;;;;;4974414;28;20421;-66
2023/09/14 09:30:29;;;;;;;5.83;2.10;;;24.70;56.00;;;;;;4974545;28;20405;-66
2023/09/14 09:32:55;;;;;;;4.30;1.70;;;24.60;56.00;;;;;;4972773;28;20492;-67
2023/09/14 09:35:22;;;;;;;2.90;1.57;;;24.60;55.90;;;;;;4974347;28;21033;-66
2023/09/14 09:37:50;;;;;;;1.70;1.60;;;24.50;55.60;;;;;;4974380;28;21013;-65
2023/09/14 09:40:22;;;;;;;1.63;1.53;;;24.60;55.60;;;;;;4974351;28;20416;-65
2023/09/14 09:42:48;;;;;;;3.00;2.10;;;24.60;55.80;;;;;;4973271;28;20429;-66
2023/09/14 09:45:14;;;;;;;2.20;2.00;;;24.60;55.90;;;;;;4972937;28;20424;-66
2023/09/14 09:47:41;;;;;;;1.70;1.60;;;24.60;55.90;;;;;;4973046;28;20436;-66
2023/09/14 09:50:09;;;;;;;1.90;1.70;;;24.60;55.80;;;;;;4997217;28;20935;-66
2023/09/14 09:52:35;;;;;;;2.37;1.97;;;24.60;55.90;;;;;;4972540;28;20943;-67
2023/09/14 09:55:02;;;;;;;2.50;1.77;;;24.60;55.80;;;;;;4973836;28;20484;-67
2023/09/14 09:57:31;;;;;;;2.17;1.83;;;24.50;55.70;;;;;;4972660;28;20423;-66
2023/09/14 09:59:57;;;;;;;2.07;1.57;;;24.50;55.70;;;;;;4972655;28;20443;-66
2023/09/14 10:02:31;;;;;;;2.90;1.70;;;24.60;55.50;;;;;;4974127;28;20839;-67
2023/09/14 10:04:57;;;;;;;2.07;1.87;;;24.50;55.40;;;;;;4972538;28;20424;-67
2023/09/14 10:07:23;;;;;;;2.10;1.70;;;24.50;55.60;;;;;;4972568;28;20457;-65
2023/09/14 10:09:53;;;;;;;2.30;1.97;;;24.60;55.60;;;;;;4972585;28;20499;-67
2023/09/14 10:12:24;;;;;;;1.73;1.63;;;24.50;55.60;;;;;;5004709;28;20669;-66
2023/09/14 10:14:52;;;;;;;3.00;1.83;;;24.50;55.40;;;;;;4973866;28;20480;-67
2023/09/14 10:17:24;;;;;;;2.23;1.90;;;24.50;55.30;;;;;;4972381;28;20512;-66
2023/09/14 10:19:51;;;;;;;1.90;1.43;;;24.60;55.50;;;;;;4973619;28;20385;-67
2023/09/14 10:22:21;;;;;;;2.10;1.90;;;24.60;55.70;;;;;;4973484;28;20479;-66
2023/09/14 10:24:47;;;;;;;3.00;2.00;;;24.60;55.80;;;;;;4973708;28;20466;-67
2023/09/14 10:27:15;;;;;;;3.47;1.70;;;24.60;55.50;;;;;;4988417;28;20425;-67
2023/09/14 10:29:42;;;;;;;4.47;2.53;;;24.60;55.50;;;;;;4973398;28;20920;-67
2023/09/14 10:32:15;;;;;;;2.80;2.43;;;24.60;55.70;;;;;;4973553;28;20440;-67
2023/09/14 10:34:41;;;;;;;3.20;2.77;;;24.60;55.70;;;;;;4973617;28;20805;-66
2023/09/14 10:37:11;;;;;;;5.20;3.47;;;24.60;55.80;;;;;;4973403;28;20507;-66
2023/09/14 10:39:40;;;;;;;5.00;3.57;;;24.50;55.60;;;;;;4973262;28;20416;-67
2023/09/14 10:42:05;;;;;;;4.63;4.13;;;24.60;55.60;;;;;;4973105;28;20425;-66
2023/09/14 10:44:32;;;;;;;5.40;4.27;;;24.60;55.60;;;;;;4971327;28;20771;-67
2023/09/14 10:47:01;;;;;;;6.20;5.30;;;24.60;55.60;;;;;;4972738;28;20196;-67
2023/09/14 10:49:35;;;;;;;6.20;5.23;;;24.60;55.70;;;;;;4972181;28;20419;-67
2023/09/14 10:52:01;;;;;;;5.50;5.00;;;24.60;55.80;;;;;;4971640;28;20448;-66
2023/09/14 10:54:31;;;;;;;6.80;6.17;;;24.60;55.90;;;;;;4972718;28;20488;-66
2023/09/14 10:56:58;;;;;;;7.80;7.07;;;24.60;56.00;;;;;;4972949;28;20436;-66
2023/09/14 10:59:53;;;;;;;8.20;7.40;;;24.60;56.10;;;;;;4970837;28;20479;-67
2023/09/14 11:02:37;;;;;;;8.03;6.80;;;24.60;56.00;;;;;;4971066;28;20491;-64
2023/09/14 11:05:13;;;;;;;9.20;7.20;;;24.60;55.90;;;;;;4972838;28;20409;-67
2023/09/14 11:07:50;;;;;;;7.67;6.70;;;24.60;56.10;;;;;;4971982;28;20828;-67
2023/09/14 11:10:21;;;;;;;8.00;7.17;;;24.60;56.10;;;;;;4971192;28;20484;-66
2023/09/14 11:12:47;;;;;;;7.00;6.30;;;24.60;56.20;;;;;;4970721;28;20828;-66
2023/09/14 11:15:15;;;;;;;7.03;6.33;;;24.60;56.10;;;;;;4972176;28;20503;-65
2023/09/14 11:17:45;;;;;;;7.33;5.80;;;24.60;56.70;;;;;;4972603;28;20899;-66
2023/09/14 11:20:20;;;;;;;6.57;5.07;;;24.60;56.00;;;;;;4972023;28;20449;-66
2023/09/14 11:22:48;;;;;;;5.97;5.30;;;24.60;55.90;;;;;;4970876;28;20472;-65
2023/09/14 11:25:36;;;;;;;7.50;5.33;;;24.70;56.20;;;;;;4972060;28;20438;-66
2023/09/14 11:28:17;;;;;;;5.90;4.80;;;24.70;56.10;;;;;;4970831;28;20417;-67
2023/09/14 11:30:46;;;;;;;5.73;5.13;;;24.70;56.20;;;;;;4970702;28;20516;-66
2023/09/14 11:33:13;;;;;;;7.53;5.03;;;24.60;56.10;;;;;;4970702;28;20431;-67
2023/09/14 11:35:40;;;;;;;4.90;4.43;;;24.60;56.20;;;;;;4971566;28;20467;-66
2023/09/14 11:38:18;;;;;;;4.80;4.30;;;24.60;56.30;;;;;;4971524;28;20412;-67
2023/09/14 11:40:44;;;;;;;4.70;4.30;;;24.70;56.40;;;;;;4969645;28;20437;-67
2023/09/14 11:43:21;;;;;;;4.97;4.17;;;24.70;56.40;;;;;;4972077;28;20444;-66
2023/09/14 11:45:55;;;;;;;3.50;3.20;;;24.70;56.50;;;;;;4970484;28;20417;-67
2023/09/14 11:48:22;;;;;;;3.70;3.40;;;24.70;56.20;;;;;;4971927;28;20958;-67
2023/09/14 11:50:50;;;;;;;3.50;3.20;;;24.70;56.20;;;;;;4970350;28;20420;-66
2023/09/14 11:53:17;;;;;;;3.97;3.53;;;24.70;56.10;;;;;;4970508;28;20516;-67
2023/09/14 11:55:48;;;;;;;3.33;3.00;;;24.70;56.00;;;;;;4972510;28;20463;-66
2023/09/14 11:58:14;;;;;;;3.80;3.50;;;24.70;56.00;;;;;;4977347;28;20409;-66
2023/09/14 12:00:43;;;;;;;4.17;3.27;;;24.70;56.00;;;;;;4978289;28;20499;-67
2023/09/14 12:03:09;;;;;;;3.80;3.17;;;24.70;56.10;;;;;;4976689;28;20476;-67
2023/09/14 12:05:35;;;;;;;3.67;3.33;;;24.70;56.20;;;;;;4957703;28;20451;-66
2023/09/14 12:08:27;;;;;;;2.80;2.30;;;24.70;56.20;;;;;;4973736;28;20441;-67
2023/09/14 12:10:55;;;;;;;2.97;2.67;;;24.70;56.20;;;;;;4956743;28;20433;-67
2023/09/14 12:13:21;;;;;;;3.20;2.83;;;24.70;56.30;;;;;;4958886;28;20437;-66
2023/09/14 12:15:56;;;;;;;3.80;2.50;;;24.70;56.20;;;;;;4957388;28;21003;-66
2023/09/14 12:18:36;;;;;;;3.37;2.93;;;24.80;56.30;;;;;;4958830;28;20216;-66
2023/09/14 12:21:02;;;;;;;3.40;2.87;;;24.80;56.30;;;;;;4958722;28;20477;-65
2023/09/14 12:23:28;;;;;;;3.27;2.97;;;24.70;56.20;;;;;;4957468;28;20497;-66
2023/09/14 12:25:53;;;;;;;2.23;2.03;;;24.80;56.30;;;;;;4957424;28;20683;-67
2023/09/14 12:28:20;;;;;;;2.50;2.20;;;24.80;56.30;;;;;;4977246;28;20229;-66
2023/09/14 12:30:45;;;;;;;3.20;2.70;;;24.80;56.30;;;;;;4944697;28;20587;-67
2023/09/14 12:33:11;;;;;;;4.13;2.20;;;24.80;56.30;;;;;;4977902;28;20441;-67
2023/09/14 12:35:41;;;;;;;2.77;2.47;;;24.80;56.20;;;;;;4978036;28;20538;-67
2023/09/14 12:38:07;;;;;;;2.17;1.97;;;24.80;56.20;;;;;;4960565;28;20273;-67
2023/09/14 12:40:38;;;;;;;2.60;2.40;;;24.80;56.20;;;;;;4976640;28;20527;-67
2023/09/14 12:43:05;;;;;;;1.93;1.77;;;24.80;56.10;;;;;;4976456;28;20281;-66
2023/09/14 12:45:34;;;;;;;2.33;1.83;;;24.80;55.80;;;;;;4977995;28;20432;-66
2023/09/14 12:48:04;;;;;;;2.77;2.37;;;24.80;55.80;;;;;;4976115;28;20440;-66
2023/09/14 12:50:32;;;;;;;3.17;2.57;;;24.70;55.90;;;;;;4973836;28;20413;-66